Time;durP1;ratioP1;P1;durP2;ratioP2;P2;SDS_P1;SDS_P2;PMS_P1;PMS_P2;Temp;Humidity;BMP_temperature;BMP_pressure;BME280_temperature;BME280_humidity;BME280_pressure;Samples;Min_cycle;Max_cycle;Signal;HPM_P1;HPM_P2
2022/08/13 00:00:17;;;;;;;17.77;14.02;;;;;;;26.65;56.04;100901.16;5085406;28;20509;-84
2022/08/13 00:02:43;;;;;;;17.27;14.35;;;;;;;26.74;55.95;100912.69;5073328;28;20024;-84
2022/08/13 00:05:09;;;;;;;;;;;;;;;26.80;55.57;100917.09;5072386;28;20078;-83
2022/08/13 00:07:36;;;;;;;16.45;14.05;;;;;;;26.55;55.84;100885.16;5074176;28;20007;-83
2022/08/13 00:10:05;;;;;;;19.92;14.32;;;;;;;26.73;56.03;100910.91;5074677;28;20054;-83
2022/08/13 00:15:28;;;;;;;17.33;13.95;;;;;;;26.73;56.10;100905.56;5071286;28;20516;-84
2022/08/13 00:17:57;;;;;;;17.42;13.55;;;;;;;26.55;55.62;100887.84;5072759;28;20085;-85
2022/08/13 00:20:27;;;;;;;16.65;13.80;;;;;;;26.37;56.08;100858.56;5073511;28;20414;-85
2022/08/13 00:22:54;;;;;;;18.02;14.02;;;;;;;26.46;55.82;100862.94;5079321;28;20029;-85
2022/08/13 00:25:20;;;;;;;17.15;14.10;;;;;;;26.72;56.15;100917.16;5083913;28;20028;-85
2022/08/13 00:27:49;;;;;;;18.20;14.45;;;;;;;26.73;55.86;100916.28;5072031;28;20119;-85
2022/08/13 00:30:17;;;;;;;17.17;14.07;;;;;;;26.69;55.59;100908.25;5071852;28;20049;-85
2022/08/13 00:32:45;;;;;;;16.92;14.25;;;;;;;26.65;56.10;100902.06;5071734;28;20089;-85
2022/08/13 00:35:12;;;;;;;18.27;14.77;;;;;;;26.39;55.61;100856.75;5051087;28;20094;-84
2022/08/13 00:37:41;;;;;;;19.08;14.27;;;;;;;26.49;55.66;100874.50;5079015;28;20032;-84
2022/08/13 00:40:09;;;;;;;18.20;15.02;;;;;;;26.63;55.74;100895.84;5072220;28;20021;-84
2022/08/13 00:42:37;;;;;;;16.77;13.65;;;;;;;26.70;55.87;100907.38;5077749;28;20025;-84
2022/08/13 00:45:05;;;;;;;16.23;13.60;;;;;;;26.58;55.85;100897.66;5073169;28;20013;-84
2022/08/13 00:50:15;;;;;;;18.10;14.30;;;;;;;26.69;55.97;100906.50;5072372;28;20031;-84
2022/08/13 00:52:41;;;;;;;;;;;;;;;26.72;55.93;100908.25;5058075;28;20127;-84
2022/08/13 00:55:10;;;;;;;17.33;13.80;;;;;;;26.63;55.76;100900.28;5072463;28;19915;-84
2022/08/13 00:57:36;;;;;;;17.55;14.07;;;;;;;26.49;56.08;100876.31;5070889;28;20027;-84
2022/08/13 01:00:11;;;;;;;17.08;13.85;;;;;;;26.64;55.97;100905.63;5071335;28;20032;-84
2022/08/13 01:02:39;;;;;;;16.85;14.38;;;;;;;26.60;55.84;100890.50;5081021;28;20028;-83
2022/08/13 01:05:05;;;;;;;18.30;13.77;;;;;;;26.38;56.06;100861.22;5070976;28;20028;-84
2022/08/13 01:07:31;;;;;;;;;;;;;;;26.69;55.79;100906.50;5071248;28;20028;-84
2022/08/13 01:09:56;;;;;;;18.23;14.23;;;;;;;26.58;55.63;100890.50;5071553;28;19918;-84
2022/08/13 01:12:23;;;;;;;;;;;;;;;26.69;55.33;100910.94;5070103;28;20115;-84
2022/08/13 01:14:49;;;;;;;18.13;14.32;;;;;;;26.37;55.94;100856.78;5067830;28;19930;-83
2022/08/13 01:17:14;;;;;;;;;;;;;;;26.66;55.48;100903.84;5071702;28;20110;-83
2022/08/13 01:19:44;;;;;;;18.98;13.88;;;;;;;26.61;55.97;100900.31;5070662;28;19987;-83
2022/08/13 01:22:10;;;;;;;16.45;14.05;;;;;;;26.63;55.69;100900.28;5071413;28;20056;-85
2022/08/13 01:24:37;;;;;;;;;;;;;;;26.65;55.61;100902.06;5060973;28;20064;-84
2022/08/13 01:27:04;;;;;;;18.15;14.15;;;;;;;26.46;55.93;100873.63;5061017;28;19974;-84
2022/08/13 01:29:31;;;;;;;16.50;13.73;;;;;;;26.39;55.88;100856.75;5078555;28;20070;-84
2022/08/13 01:31:56;;;;;;;16.88;14.60;;;;;;;26.20;55.81;100830.19;5071695;28;20060;-83
2022/08/13 01:34:22;;;;;;;;;;;;;;;26.66;55.83;100897.59;5087369;28;20052;-84
2022/08/13 01:36:49;;;;;;;18.40;14.77;;;;;;;26.55;55.92;100881.59;5073761;28;19915;-86
2022/08/13 01:39:15;;;;;;;19.70;14.43;;;;;;;26.20;56.14;100829.25;5080487;28;20498;-86
2022/08/13 01:41:40;;;;;;;17.45;14.20;;;;;;;26.49;55.85;100877.19;5065338;28;20047;-86
2022/08/13 01:44:06;;;;;;;;;;;;;;;26.63;55.82;100894.94;5075040;28;20071;-86
2022/08/13 01:52:08;;;;;;;;;;;;;;;26.60;55.81;100888.69;5071854;28;20555;-85
2022/08/13 01:54:36;;;;;;;17.83;14.13;;;;;;;26.56;55.73;100883.38;5069746;28;19912;-85
2022/08/13 01:57:03;;;;;;;18.17;14.20;;;;;;;26.54;55.60;100882.50;5072878;28;20520;-85
2022/08/13 01:59:30;;;;;;;18.52;14.13;;;;;;;26.47;55.74;100865.59;5080443;28;20403;-85
2022/08/13 02:01:57;;;;;;;17.83;14.35;;;;;;;26.46;55.74;100868.28;5071044;28;20478;-85
2022/08/13 02:04:23;;;;;;;17.60;14.02;;;;;;;26.55;55.95;100882.47;5070826;28;20063;-84
2022/08/13 02:06:49;;;;;;;18.45;14.18;;;;;;;26.40;55.48;100851.38;5069727;28;20043;-85
2022/08/13 02:09:15;;;;;;;17.35;14.02;;;;;;;26.56;55.49;100883.38;5076720;28;20040;-84
2022/08/13 02:11:41;;;;;;;;;;;;;;;26.60;55.62;100888.69;5069768;28;20422;-84
2022/08/13 02:14:07;;;;;;;16.20;13.95;;;;;;;26.38;55.85;100847.84;5071039;28;20352;-85
2022/08/13 02:16:36;;;;;;;16.30;13.98;;;;;;;26.53;55.72;100878.03;5070599;28;20017;-84
2022/08/13 02:19:07;;;;;;;16.65;13.80;;;;;;;26.46;55.75;100861.16;5061698;28;20039;-84
2022/08/13 02:21:38;;;;;;;17.33;13.85;;;;;;;26.49;56.00;100865.59;5073018;28;20085;-85
2022/08/13 02:24:08;;;;;;;17.88;14.88;;;;;;;26.51;55.83;100867.34;5069490;28;20382;-84
2022/08/13 02:26:35;;;;;;;16.08;13.35;;;;;;;26.54;55.91;100875.38;5073032;28;20498;-85
2022/08/13 02:29:04;;;;;;;17.10;13.32;;;;;;;26.54;55.58;100878.03;5081504;28;20041;-85
2022/08/13 02:31:31;;;;;;;16.38;13.30;;;;;;;26.47;55.89;100862.03;5080608;28;20024;-84
2022/08/13 02:33:57;;;;;;;18.17;13.52;;;;;;;26.54;55.93;100877.13;5070222;28;20040;-84
2022/08/13 02:36:24;;;;;;;;;;;;;;;26.56;55.66;100876.28;5081532;28;20016;-85
2022/08/13 02:39:05;;;;;;;17.93;13.83;;;;;;;26.44;56.07;100859.38;5069280;28;19908;-86
2022/08/13 02:41:40;;;;;;;17.33;13.75;;;;;;;26.38;55.48;100857.66;5086443;28;20098;-85
2022/08/13 02:44:10;;;;;;;17.33;13.75;;;;;;;26.43;55.79;100865.66;5073797;28;20032;-84
2022/08/13 02:46:37;;;;;;;18.83;14.32;;;;;;;26.51;56.04;100883.41;5054850;28;20029;-84
2022/08/13 02:49:03;;;;;;;16.95;13.77;;;;;;;26.51;55.81;100885.22;5078509;28;20526;-85
2022/08/13 02:51:31;;;;;;;19.83;14.93;;;;;;;26.39;55.87;100873.72;5086492;28;20017;-85
2022/08/13 02:54:00;;;;;;;19.10;14.55;;;;;;;26.45;56.09;100883.47;5078004;28;20038;-85
2022/08/13 02:56:29;;;;;;;18.58;14.18;;;;;;;26.40;55.72;100863.91;5069455;28;20048;-84
2022/08/13 02:58:56;;;;;;;18.88;14.60;;;;;;;26.08;55.64;100814.22;5070778;28;20033;-84
2022/08/13 03:01:24;;;;;;;18.15;13.80;;;;;;;26.49;55.78;100884.34;5069037;28;20024;-84
2022/08/13 03:03:50;;;;;;;18.02;13.80;;;;;;;26.49;56.09;100887.91;5071941;28;20107;-83
2022/08/13 03:06:19;;;;;;;18.48;14.13;;;;;;;26.24;55.87;100838.16;5055397;28;20548;-85
2022/08/13 03:08:49;;;;;;;17.48;14.50;;;;;;;26.34;56.11;100853.25;5070411;28;20121;-85
2022/08/13 03:11:15;;;;;;;17.40;13.98;;;;;;;26.45;55.89;100875.44;5069881;28;20085;-84
2022/08/13 03:13:44;;;;;;;17.35;13.85;;;;;;;26.48;55.81;100886.13;5072347;28;20032;-84
2022/08/13 03:16:14;;;;;;;18.25;13.90;;;;;;;26.48;55.99;100883.47;5073180;28;20025;-84
2022/08/13 03:18:40;;;;;;;17.58;14.10;;;;;;;26.39;55.93;100873.72;5064182;28;20027;-85
2022/08/13 03:21:05;;;;;;;;;;;;;;;26.49;55.73;100884.34;5077306;28;20024;-85
2022/08/13 03:23:32;;;;;;;17.00;13.77;;;;;;;26.45;56.17;100882.59;5073577;28;19912;-88
2022/08/13 03:25:58;;;;;;;17.85;13.90;;;;;;;26.32;56.13;100860.41;5056245;28;20086;-85
2022/08/13 03:28:23;;;;;;;;;;;;;;;26.47;55.70;100881.66;5072550;28;20048;-85
2022/08/13 03:30:49;;;;;;;15.57;13.23;;;;;;;26.34;56.06;100867.50;5082109;28;20003;-84
2022/08/13 03:33:15;;;;;;;;;;;;;;;26.46;55.94;100879.91;5050633;28;20028;-85
2022/08/13 03:35:41;;;;;;;17.05;13.68;;;;;;;26.40;55.87;100885.31;5071916;28;19916;-85
2022/08/13 03:38:10;;;;;;;18.27;13.90;;;;;;;26.43;56.16;100882.59;5056189;28;20612;-85
2022/08/13 03:43:20;;;;;;;17.88;13.55;;;;;;;26.36;55.84;100873.75;5073111;28;20036;-85
2022/08/13 03:45:46;;;;;;;;;;;;;;;26.43;55.78;100877.25;5072348;28;20025;-84
2022/08/13 03:48:13;;;;;;;17.30;13.75;;;;;;;26.36;56.13;100872.84;5072629;28;19923;-84
2022/08/13 03:50:46;;;;;;;18.85;14.20;;;;;;;26.37;56.44;100879.97;5082913;28;20055;-84
2022/08/13 03:53:12;;;;;;;19.48;14.43;;;;;;;26.40;55.99;100880.84;5072475;28;20032;-85
2022/08/13 03:55:39;;;;;;;19.40;14.32;;;;;;;26.13;55.88;100832.91;5072818;28;20025;-84
2022/08/13 03:58:09;;;;;;;16.45;13.57;;;;;;;26.17;55.94;100840.91;5073613;28;20095;-84
2022/08/13 04:00:48;;;;;;;16.33;13.55;;;;;;;26.38;56.21;100879.09;5079852;28;20506;-85
2022/08/13 04:03:25;;;;;;;15.82;13.23;;;;;;;26.39;55.79;100876.41;5074902;28;20409;-83
2022/08/13 04:05:55;;;;;;;17.10;13.57;;;;;;;26.39;55.87;100881.75;5073448;28;20475;-84
2022/08/13 04:08:21;;;;;;;18.00;14.70;;;;;;;26.20;56.12;100856.94;5074603;28;20051;-83
2022/08/13 04:10:46;;;;;;;;;;;;;;;26.37;55.98;100882.66;5077886;28;20083;-85
2022/08/13 04:13:15;;;;;;;16.77;14.02;;;;;;;26.21;55.95;100857.81;5083994;28;19973;-84
2022/08/13 04:15:43;;;;;;;16.70;14.10;;;;;;;26.33;56.08;100871.09;5078122;28;20036;-85
2022/08/13 04:18:13;;;;;;;16.52;13.82;;;;;;;26.24;55.98;100856.91;5091921;28;20108;-86
2022/08/13 04:20:40;;;;;;;17.98;14.50;;;;;;;26.19;55.88;100844.44;5078869;28;20103;-84
2022/08/13 04:23:16;;;;;;;20.15;13.98;;;;;;;26.09;55.93;100823.13;5072245;28;20063;-83
2022/08/13 04:25:46;;;;;;;18.08;14.10;;;;;;;26.36;56.21;100872.84;5072000;28;20490;-83
2022/08/13 04:28:13;;;;;;;17.13;14.15;;;;;;;26.02;56.31;100814.28;5087269;28;20033;-84
2022/08/13 04:30:41;;;;;;;17.50;14.07;;;;;;;26.32;56.10;100866.63;5072644;28;20028;-84
2022/08/13 04:33:09;;;;;;;17.15;13.38;;;;;;;26.15;56.25;100825.75;5069903;28;20064;-84
2022/08/13 04:35:35;;;;;;;17.30;13.77;;;;;;;26.27;56.29;100847.06;5071279;28;20110;-85
2022/08/13 04:38:01;;;;;;;18.52;14.27;;;;;;;26.29;56.26;100857.72;5078529;28;20032;-84
2022/08/13 04:40:26;;;;;;;;;;;;;;;26.33;56.12;100863.06;5068471;28;20098;-84
2022/08/13 04:42:54;;;;;;;17.90;14.07;;;;;;;26.14;56.22;100838.25;5072527;28;20003;-84
2022/08/13 04:45:21;;;;;;;18.52;14.10;;;;;;;26.08;56.26;100821.38;5071329;28;20498;-85
2022/08/13 04:47:47;;;;;;;17.60;14.32;;;;;;;26.12;56.22;100826.69;5080436;28;20063;-83
2022/08/13 04:50:13;;;;;;;;;;;;;;;26.34;56.23;100867.50;5080014;28;20421;-81
2022/08/13 04:52:39;;;;;;;17.83;13.40;;;;;;;26.25;56.12;100851.53;5072865;28;19916;-83
2022/08/13 04:55:06;;;;;;;18.27;14.73;;;;;;;26.24;56.24;100854.22;5072592;28;20060;-83
2022/08/13 04:57:33;;;;;;;18.02;13.52;;;;;;;26.06;56.30;100834.75;5081967;28;20032;-87
2022/08/13 05:00:05;;;;;;;20.73;13.85;;;;;;;26.26;56.19;100861.34;5054591;28;20494;-82
2022/08/13 05:02:30;;;;;;;17.63;14.25;;;;;;;26.16;56.41;100848.94;5065916;28;20063;-82
2022/08/13 05:04:56;;;;;;;;;;;;;;;26.31;56.23;100861.28;5070668;28;20032;-90
2022/08/13 05:07:22;;;;;;;19.10;14.18;;;;;;;26.27;56.55;100859.53;5052010;28;20023;-86
2022/08/13 05:09:47;;;;;;;;;;;;;;;26.31;56.38;100863.97;5074067;28;20113;-86
2022/08/13 05:12:13;;;;;;;17.90;13.95;;;;;;;26.15;56.72;100848.06;5071503;28;19923;-83
2022/08/13 05:14:39;;;;;;;;;;;;;;;26.29;56.33;100861.31;5063093;28;20076;-83
2022/08/13 05:17:04;;;;;;;16.02;13.35;;;;;;;26.15;56.41;100844.50;5070017;28;19966;-83
2022/08/13 05:19:30;;;;;;;;;;;;;;;26.29;56.17;100866.69;5080366;28;20154;-84
2022/08/13 05:21:56;;;;;;;17.08;13.55;;;;;;;26.19;56.14;100843.56;5076332;28;19939;-83
2022/08/13 05:24:21;;;;;;;;;;;;;;;26.29;56.28;100855.06;5064813;28;20032;-84
2022/08/13 05:26:48;;;;;;;17.15;13.40;;;;;;;26.24;56.38;100856.91;5079107;28;20386;-84
2022/08/13 05:29:14;;;;;;;18.23;13.52;;;;;;;25.90;56.23;100801.88;5064641;28;20048;-83
2022/08/13 05:31:40;;;;;;;;;;;;;;;26.29;56.20;100857.72;5069655;28;20607;-84
2022/08/13 05:34:06;;;;;;;16.90;13.55;;;;;;;26.25;56.43;100851.53;5071356;28;19970;-86
2022/08/13 05:36:32;;;;;;;;;;;;;;;26.27;56.42;100860.44;5071813;28;20466;-85
2022/08/13 05:38:58;;;;;;;20.15;13.23;;;;;;;26.20;56.71;100861.38;5072810;28;19917;-86
2022/08/13 05:41:28;;;;;;;21.50;13.50;;;;;;;26.05;56.90;100830.28;5066674;28;20555;-85
2022/08/13 05:43:53;;;;;;;18.08;12.88;;;;;;;26.18;56.70;100852.47;5063571;28;20028;-84
2022/08/13 05:46:19;;;;;;;;;;;;;;;26.28;56.58;100854.19;5060572;28;20024;-84
2022/08/13 05:48:56;;;;;;;18.48;13.30;;;;;;;26.25;56.67;100853.34;5070662;28;19956;-84
2022/08/13 05:51:31;;;;;;;17.83;12.75;;;;;;;26.27;56.59;100863.13;5069356;28;20034;-84
2022/08/13 05:53:59;;;;;;;19.98;13.80;;;;;;;26.25;57.05;100850.66;5065774;28;20060;-84
2022/08/13 05:56:35;;;;;;;16.58;13.52;;;;;;;26.26;56.77;100847.94;5069411;28;20025;-86
2022/08/13 05:59:01;;;;;;;17.95;13.38;;;;;;;26.15;56.78;100826.63;5052892;28;20097;-86
2022/08/13 06:04:30;;;;;;;17.88;13.05;;;;;;;26.19;56.89;100831.06;5041756;28;19923;-85
2022/08/13 06:06:56;;;;;;;;;;;;;;;26.30;56.49;100843.47;5030306;28;20026;-84
2022/08/13 06:09:23;;;;;;;15.32;12.88;;;;;;;26.00;56.58;100813.41;5043550;28;20459;-84
2022/08/13 06:11:51;;;;;;;15.75;12.40;;;;;;;26.20;56.82;100846.25;5065690;28;20063;-85
2022/08/13 06:14:23;;;;;;;16.08;13.13;;;;;;;26.06;56.59;100821.38;5062370;28;20029;-84
2022/08/13 06:16:51;;;;;;;15.65;12.05;;;;;;;25.96;56.51;100796.47;5053238;28;20028;-85
2022/08/13 06:19:21;;;;;;;16.17;13.65;;;;;;;25.89;55.76;100781.41;5059984;28;20028;-84
2022/08/13 06:21:48;;;;;;;14.40;12.25;;;;;;;26.25;56.17;100846.19;5069540;28;20028;-85
2022/08/13 06:24:14;;;;;;;16.30;11.98;;;;;;;26.04;55.99;100806.25;5076751;28;20089;-84
2022/08/13 06:26:40;;;;;;;13.50;11.55;;;;;;;26.02;55.71;100798.22;5070483;28;20033;-86
2022/08/13 06:29:06;;;;;;;;;;;;;;;26.27;55.78;100844.38;5070348;28;20090;-85
2022/08/13 06:31:33;;;;;;;15.48;12.45;;;;;;;25.97;56.01;100800.94;5052746;28;19916;-85
2022/08/13 06:33:59;;;;;;;15.27;12.80;;;;;;;26.20;55.86;100832.84;5067964;28;20033;-86
2022/08/13 06:36:29;;;;;;;14.02;11.88;;;;;;;26.18;56.06;100836.41;5070679;28;20031;-86
2022/08/13 06:38:59;;;;;;;14.68;11.55;;;;;;;26.11;55.79;100824.00;5069142;28;20024;-84
2022/08/13 06:41:25;;;;;;;13.95;11.95;;;;;;;25.65;55.97;100747.66;5052657;28;20048;-86
2022/08/13 06:43:55;;;;;;;14.30;11.93;;;;;;;26.15;55.68;100829.31;5063230;28;20137;-85
2022/08/13 06:46:28;;;;;;;15.60;12.30;;;;;;;26.12;55.82;100833.78;5055753;28;20028;-86
2022/08/13 06:48:55;;;;;;;13.63;11.38;;;;;;;25.85;55.63;100779.59;5073581;28;20029;-85
2022/08/13 06:51:21;;;;;;;15.40;11.52;;;;;;;25.80;55.69;100771.63;5058728;28;20056;-85
2022/08/13 06:53:47;;;;;;;;;;;;;;;26.24;55.42;100836.38;5057820;28;20056;-86
2022/08/13 06:56:17;;;;;;;13.80;11.60;;;;;;;25.90;55.76;100790.31;5075126;28;19912;-86
2022/08/13 06:58:45;;;;;;;12.65;11.35;;;;;;;26.00;55.80;100808.94;5056916;28;20033;-84
2022/08/13 07:01:12;;;;;;;13.95;11.18;;;;;;;26.15;55.54;100828.44;5065782;28;20024;-85
2022/08/13 07:03:39;;;;;;;13.45;11.48;;;;;;;25.78;55.57;100776.09;5074509;28;20028;-84
2022/08/13 07:06:13;;;;;;;13.65;10.93;;;;;;;26.11;55.53;100824.00;5071949;28;20056;-84
2022/08/13 07:08:39;;;;;;;13.20;11.27;;;;;;;26.11;55.80;100829.34;5069693;28;20059;-86
2022/08/13 07:11:23;;;;;;;;;;;;;;;26.12;55.95;100831.13;5073566;28;20052;-85
2022/08/13 07:13:54;;;;;;;13.32;11.35;;;;;;;26.13;55.70;100830.22;5073399;28;20009;-86
2022/08/13 07:16:23;;;;;;;13.15;11.20;;;;;;;26.04;55.88;100823.19;5072588;28;20029;-85
2022/08/13 07:18:51;;;;;;;13.98;11.95;;;;;;;26.01;56.01;100820.50;5055645;28;20024;-86
2022/08/13 07:21:22;;;;;;;13.80;11.45;;;;;;;25.90;55.87;100804.56;5056235;28;20028;-85
2022/08/13 07:23:51;;;;;;;13.48;11.43;;;;;;;26.12;55.93;100825.78;5072786;28;20086;-86
2022/08/13 07:26:18;;;;;;;12.90;11.15;;;;;;;25.97;55.78;100798.28;5072940;28;20024;-86
2022/08/13 07:28:49;;;;;;;14.07;11.43;;;;;;;26.07;55.84;100808.88;5071808;28;20044;-85
2022/08/13 07:31:23;;;;;;;14.45;11.43;;;;;;;26.10;55.53;100817.78;5056464;28;20028;-83
2022/08/13 07:33:52;;;;;;;12.57;10.95;;;;;;;26.03;55.63;100807.13;5088401;28;20033;-84
2022/08/13 07:36:19;;;;;;;13.38;10.95;;;;;;;26.08;55.83;100822.25;5074265;28;20024;-84
2022/08/13 07:38:46;;;;;;;13.38;11.18;;;;;;;26.10;55.74;100825.81;5077926;28;20494;-82
2022/08/13 07:41:11;;;;;;;12.50;10.88;;;;;;;26.08;55.62;100808.88;5072982;28;20020;-84
2022/08/13 07:43:39;;;;;;;;;;;;;;;26.13;55.96;100814.19;5073054;28;20418;-83
2022/08/13 07:46:10;;;;;;;12.80;10.55;;;;;;;26.15;55.47;100815.94;5058242;28;19912;-84
2022/08/13 07:48:41;;;;;;;12.82;10.95;;;;;;;25.90;55.69;100774.25;5072939;28;20024;-84
2022/08/13 07:51:19;;;;;;;14.15;11.63;;;;;;;26.15;55.90;100812.38;5072036;28;20025;-84
2022/08/13 07:53:50;;;;;;;13.43;11.55;;;;;;;26.06;55.81;100802.66;5077144;28;20082;-83
2022/08/13 07:56:28;;;;;;;14.02;11.70;;;;;;;26.07;55.94;100801.72;5072155;28;20478;-84
2022/08/13 07:59:00;;;;;;;14.88;11.60;;;;;;;26.14;55.63;100816.84;5073030;28;20024;-83
2022/08/13 08:01:29;;;;;;;13.93;11.55;;;;;;;26.14;55.78;100810.59;5074199;28;20027;-85
2022/08/13 08:04:02;;;;;;;13.93;11.63;;;;;;;26.02;55.64;100795.53;5078929;28;20033;-84
2022/08/13 08:06:29;;;;;;;12.57;10.45;;;;;;;26.18;55.47;100812.31;5076243;28;20023;-84
2022/08/13 08:08:57;;;;;;;13.43;11.40;;;;;;;26.19;55.42;100809.66;5073080;28;20032;-85
2022/08/13 08:14:09;;;;;;;15.48;11.55;;;;;;;26.06;55.75;100785.72;5091480;28;20098;-84
2022/08/13 08:16:36;;;;;;;;;;;;;;;26.22;55.46;100810.53;5080107;28;20033;-84
2022/08/13 08:19:03;;;;;;;15.57;11.60;;;;;;;26.05;55.95;100774.09;5072328;28;19916;-84
2022/08/13 08:21:29;;;;;;;14.15;11.55;;;;;;;26.08;55.90;100783.91;5073542;28;20020;-84
2022/08/13 08:23:57;;;;;;;;;;;;;;;26.21;55.83;100801.63;5073790;28;20194;-84
2022/08/13 08:26:28;;;;;;;14.02;11.80;;;;;;;26.14;55.69;100792.75;5072716;28;19931;-83
2022/08/13 08:28:55;;;;;;;14.10;11.93;;;;;;;26.18;55.96;100798.94;5066532;28;20040;-85
2022/08/13 08:31:22;;;;;;;14.52;11.38;;;;;;;26.22;55.97;100795.34;5076704;28;20025;-85
2022/08/13 08:33:48;;;;;;;13.90;11.70;;;;;;;26.18;55.69;100775.75;5072884;28;20028;-83
2022/08/13 08:36:14;;;;;;;;;;;;;;;26.25;55.91;100792.66;5083589;28;20032;-84
2022/08/13 08:44:20;;;;;;;12.95;11.15;;;;;;;26.17;56.18;100771.31;5069553;28;20036;-84
2022/08/13 08:46:47;;;;;;;14.27;11.70;;;;;;;25.94;56.48;100725.16;5081949;28;20036;-84
2022/08/13 08:49:13;;;;;;;16.10;12.52;;;;;;;26.18;55.91;100761.47;5066526;28;20039;-84
2022/08/13 08:51:39;;;;;;;;;;;;;;;26.26;56.08;100772.09;5071874;28;20024;-84
2022/08/13 08:54:04;;;;;;;13.55;11.63;;;;;;;26.18;57.12;100757.03;5071672;28;20007;-82
2022/08/13 08:56:32;;;;;;;;;;;;;;;26.25;56.09;100768.56;5071781;28;20040;-83
2022/08/13 08:58:58;;;;;;;15.70;11.77;;;;;;;26.29;55.79;100761.34;5070889;28;19912;-83
2022/08/13 09:01:25;;;;;;;13.65;11.60;;;;;;;26.14;55.88;100736.56;5072264;28;20070;-83
2022/08/13 09:03:52;;;;;;;13.70;11.43;;;;;;;26.27;55.93;100760.47;5072790;28;20482;-84
2022/08/13 09:06:18;;;;;;;13.95;11.77;;;;;;;26.17;55.71;100736.50;5072274;28;20024;-84
2022/08/13 09:08:46;;;;;;;14.25;11.88;;;;;;;26.16;55.89;100742.78;5080889;28;20016;-84
2022/08/13 09:11:14;;;;;;;13.65;11.65;;;;;;;26.14;56.17;100733.88;5072101;28;20020;-82
2022/08/13 09:13:43;;;;;;;14.95;11.73;;;;;;;26.03;55.54;100713.47;5070566;28;20478;-85
2022/08/13 09:16:08;;;;;;;14.77;11.55;;;;;;;26.24;55.81;100745.34;5062485;28;20028;-83
2022/08/13 09:18:34;;;;;;;;;;;;;;;26.29;56.10;100754.22;5071823;28;20029;-84
2022/08/13 09:21:00;;;;;;;14.73;11.93;;;;;;;26.06;55.81;100710.78;5064063;28;20011;-83
2022/08/13 09:23:26;;;;;;;13.68;11.65;;;;;;;25.90;55.54;100678.81;5086152;28;20065;-83
2022/08/13 09:25:52;;;;;;;;;;;;;;;26.29;55.75;100756.00;5071137;28;20025;-84
2022/08/13 09:28:29;;;;;;;13.02;10.98;;;;;;;25.94;55.63;100693.94;5070552;28;19912;-82
2022/08/13 09:30:55;;;;;;;15.45;11.32;;;;;;;26.22;56.06;100746.28;5060404;28;20082;-82
2022/08/13 09:33:23;;;;;;;;;;;;;;;26.31;55.94;100746.16;5071790;28;20028;-83
2022/08/13 09:35:51;;;;;;;14.30;11.18;;;;;;;26.23;55.68;100740.03;5057439;28;20283;-83
2022/08/13 09:38:18;;;;;;;14.50;11.95;;;;;;;26.00;55.80;100693.88;5071770;28;20032;-82
2022/08/13 09:41:03;;;;;;;13.50;11.43;;;;;;;26.16;55.61;100716.00;5069928;28;20017;-82
2022/08/13 09:43:38;;;;;;;14.40;11.02;;;;;;;26.15;55.55;100710.66;5069602;28;20137;-85
2022/08/13 09:46:04;;;;;;;16.35;11.65;;;;;;;26.14;55.74;100708.88;5071224;28;20021;-82
2022/08/13 09:48:30;;;;;;;;;;;;;;;26.35;55.63;100742.53;5070814;28;20028;-84
2022/08/13 09:50:55;;;;;;;19.38;12.00;;;;;;;25.95;55.67;100674.31;5053845;28;20329;-82
2022/08/13 09:53:25;;;;;;;14.48;11.65;;;;;;;26.13;55.80;100707.13;5071728;28;20016;-83
2022/08/13 09:55:54;;;;;;;19.92;12.13;;;;;;;26.27;55.75;100728.34;5069828;28;20024;-82
2022/08/13 09:58:24;;;;;;;18.08;12.95;;;;;;;26.15;55.73;100699.97;5069106;28;20036;-83
2022/08/13 10:00:52;;;;;;;19.20;12.68;;;;;;;26.09;56.02;100690.19;5053963;28;20035;-82
2022/08/13 10:03:18;;;;;;;19.70;12.45;;;;;;;26.35;56.24;100743.47;5058752;28;20078;-84
2022/08/13 10:05:47;;;;;;;;;;;;;;;26.37;56.36;100738.97;5070464;28;20028;-83
2022/08/13 10:08:15;;;;;;;21.13;13.00;;;;;;;26.06;56.34;100689.38;5070785;28;19931;-83
2022/08/13 10:10:42;;;;;;;17.45;12.80;;;;;;;26.37;56.22;100732.72;5069287;28;20031;-82
2022/08/13 10:13:20;;;;;;;19.58;12.55;;;;;;;26.39;56.51;100745.19;5071048;28;20016;-84
2022/08/13 10:15:49;;;;;;;17.73;12.82;;;;;;;26.15;56.24;100703.50;5066748;28;20071;-83
2022/08/13 10:18:16;;;;;;;23.88;13.55;;;;;;;26.17;56.29;100704.38;5070083;28;20024;-82
2022/08/13 10:20:45;;;;;;;19.60;12.32;;;;;;;26.20;56.42;100706.13;5069115;28;20024;-82
2022/08/13 10:23:13;;;;;;;19.92;13.02;;;;;;;26.35;56.16;100724.72;5069466;28;20107;-81
2022/08/13 10:25:39;;;;;;;21.63;12.88;;;;;;;26.38;55.98;100731.81;5063231;28;20045;-81
2022/08/13 10:28:19;;;;;;;23.70;13.85;;;;;;;26.37;56.42;100720.22;5066799;28;20472;-81
2022/08/13 10:30:46;;;;;;;22.60;12.73;;;;;;;26.38;56.02;100724.66;5059495;28;20049;-81
2022/08/13 10:33:12;;;;;;;;;;;;;;;26.42;56.03;100733.56;5069705;28;20479;-82
2022/08/13 10:35:39;;;;;;;21.90;13.75;;;;;;;26.40;56.38;100727.34;5070679;28;19912;-81
2022/08/13 10:38:08;;;;;;;20.95;13.88;;;;;;;26.39;56.31;100729.13;5069812;28;20505;-81
2022/08/13 10:40:35;;;;;;;20.42;13.15;;;;;;;26.43;56.06;100729.06;5068216;28;20124;-81
2022/08/13 10:43:00;;;;;;;20.42;13.52;;;;;;;26.16;56.16;100680.31;5065905;28;20027;-81
2022/08/13 10:45:28;;;;;;;;;;;;;;;26.43;56.53;100726.41;5070874;28;20020;-80
2022/08/13 10:48:20;;;;;;;21.48;13.35;;;;;;;26.31;56.12;100708.69;5071429;28;19978;-83
2022/08/13 10:50:46;;;;;;;21.77;13.23;;;;;;;26.09;56.00;100674.13;5070423;28;20066;-82
2022/08/13 10:53:55;;;;;;;;;;;;;;;26.44;55.96;100717.44;5078088;28;20464;-82
2022/08/13 10:55:57;;;;;;;21.25;14.13;;;;;;;26.36;56.10;100715.75;5066622;28;19909;-83
2022/08/13 10:58:22;;;;;;;;;;;;;;;26.43;56.22;100716.56;5071100;28;20028;-81
2022/08/13 11:00:51;;;;;;;19.45;13.48;;;;;;;26.44;55.91;100721.03;5040961;28;19916;-82
2022/08/13 11:03:17;;;;;;;21.50;13.50;;;;;;;26.39;55.77;100699.69;5068245;28;20494;-81
2022/08/13 11:05:43;;;;;;;;;;;;;;;26.49;55.72;100708.47;5068523;28;20064;-83
2022/08/13 11:08:13;;;;;;;22.00;13.57;;;;;;;26.08;55.54;100637.59;5068945;28;19916;-84
2022/08/13 11:10:38;;;;;;;23.40;14.18;;;;;;;26.12;55.71;100646.44;5072070;28;20074;-82
2022/08/13 11:13:05;;;;;;;;;;;;;;;26.21;52.11;100707.91;5070594;28;20029;-83
2022/08/13 11:15:31;;;;;;;28.55;14.45;;;;;;;25.90;54.25;100694.84;5068572;28;20302;-84
2022/08/13 11:17:57;;;;;;;24.85;14.50;;;;;;;25.93;54.93;100673.44;5068720;28;20029;-83
2022/08/13 11:20:24;;;;;;;;;;;;;;;26.28;55.86;100704.25;5070257;28;20447;-83
2022/08/13 11:22:55;;;;;;;28.73;15.35;;;;;;;26.08;56.36;100661.69;5069863;28;19912;-83
2022/08/13 11:25:21;;;;;;;29.25;15.52;;;;;;;26.08;56.86;100664.34;5068706;28;20040;-85
2022/08/13 11:27:47;;;;;;;28.08;16.00;;;;;;;26.38;56.61;100707.72;5045734;28;20079;-82
2022/08/13 11:30:14;;;;;;;32.25;16.42;;;;;;;26.52;57.56;100699.50;5040479;28;20112;-83
2022/08/13 11:32:40;;;;;;;30.00;15.50;;;;;;;26.25;57.54;100663.28;5072049;28;20079;-83
2022/08/13 11:35:11;;;;;;;25.10;15.85;;;;;;;26.48;57.22;100696.00;5060400;28;20032;-85
2022/08/13 11:37:37;;;;;;;31.55;16.10;;;;;;;26.41;57.12;100688.94;5088815;28;20375;-84
2022/08/13 11:40:04;;;;;;;25.77;15.07;;;;;;;26.54;57.59;100695.91;5071819;28;20120;-84
2022/08/13 11:42:32;;;;;;;30.05;15.32;;;;;;;26.52;56.60;100687.03;5055734;28;20413;-83
2022/08/13 11:44:58;;;;;;;25.95;14.95;;;;;;;26.57;56.64;100686.97;5073758;28;20413;-83
2022/08/13 11:47:24;;;;;;;;;;;;;;;26.64;56.60;100691.34;5073049;28;20026;-81
2022/08/13 11:49:50;;;;;;;29.08;15.70;;;;;;;26.52;57.27;100672.72;5075541;28;19916;-85
2022/08/13 11:52:19;;;;;;;;;;;;;;;26.64;57.16;100691.34;5070840;28;20021;-85